Airfield :
LOGIN :

Register | Disclaimer

   EN    FR    IT 

 










Legend :    VFR   Marginal VFR   IFR   Intensive IFR   Very Intensive IFR
Visi :
Ceiling :
>= 8 km
>= 3000ft
5 to 8 km
1000 to 3000 ft
1500m to 5 km
500 to 1000 ft
800 to 1500m
200 to 500 ft
< 800m
< 200 ft
Symbols :   Thunderstorms  Fog  Heavy snow  Heavy precipitations  Wind > 20 kt
SIGMETs :     Misc.  Thunderstorms  Icing  Turbulence  Mountain Waves  Volcanic Ashes







- Airport Elevation : 72 ft
- IATA code : UDE


EHVK - Volkel Airbase

CURRENT METAR :
  • 251325Z AUTO 09003KT 080V170 9999 OVC320 14/06 Q1038 BLU VRB02KT 9999 SCT040

EXPIRED METARs :
  • 251255Z AUTO 11005KT 080V170 9999 FEW043 OVC330 16/07 Q1038 BLU VRB02KT 9999 SCT040
  • 251225Z AUTO 12003KT 330V120 9999 SCT041 15/05 Q1039 BLU VRB02KT 9999 SCT040
  • 251155Z AUTO VRB03KT 9999 SCT042 BKN350 15/05 Q1039 BLU VRB02KT 9999 SCT040
  • 251125Z AUTO VRB03KT 9999 BKN370 14/05 Q1039 BLU VRB02KT 9999 FEW030
  • 251055Z AUTO VRB01KT 9999 SCT380 14/06 Q1039 BLU VRB02KT 9999 FEW030

TAF TAF EHVK
Valid from the 25 at 13:00 until the 26 at 01:00 UTC


251227Z 2513/2601 11004KT 9999 SCT040
TEMPO 2513/2601 VRB03KT
No reported NOTAMs for that airfield.



MET'MAP, your aeronautical weather chart ! - Copyright ORBIFLY December 2007 - Disclaimer

ORBIFLY MET'MAP TEAM :

Programming & Development : Alexandra Zaïnal
Concept & Development : Baudouin d'Aumeries
Co-Development & Prog : Marc-Olivier Méhu
Technical & hardware support : Manuel Goepfert

Contact : metmap@orbifly.com




SOURCES & CREDITS :

   NOAA